• Join FlightAware (Why Join?)
  • Login
  • US Flag 
03:33AM EDT


 

Airport Tracker/Info


-or-


 

Live Flight TrackerFlight Track Log ✈ SWA2130 ✈ 26-Apr-2013 ✈ KELP - KSAT

Flight Track Log - Related Links

Times and Time Zones

All times are in EDT time to prevent confusion due to time zone crossing. See the SWA2130 flight status page for this flight to view local times or setup timezone preferences in your user account.

Time Position Orientation Groundspeed Altitude Reporting Facility
EDT Latitude Longitude Course Direction KTS MPH feet Rate Location/Type
11:07PM 31.7831 -106.4025 197° South 177 204 5,500  Level Albuquerque Center
11:07PM 31.7583 -106.3661 129° Southeast 212 244 7,000 2,040 Climbing Albuquerque Center
11:08PM 31.7453 -106.3469 129° Southeast 255 293 7,600 2,940 Climbing Albuquerque Center
11:09PM 31.7108 -106.2928 127° Southeast 289 333 10,000 3,180 Climbing Albuquerque Center
11:10PM 31.6686 -106.1953 117° Southeast 337 388 13,300 3,540 Climbing Albuquerque Center
11:11PM 31.6186 -106.0894 119° Southeast 367 422 17,200 3,540 Climbing Albuquerque Center
11:12PM 31.5647 -105.9803 120° Southeast 385 443 20,500 3,000 Climbing Albuquerque Center
11:13PM 31.5008 -105.8725 125° Southeast 403 464 23,400 2,640 Climbing Albuquerque Center
11:14PM 31.4589 -105.7419 111° Southeast 433 498 26,000 2,640 Climbing Albuquerque Center
11:15PM 31.4289 -105.5669 101° East 455 524 28,800 2,340 Climbing Albuquerque Center
11:16PM 31.4019 -105.4147 102° East 472 543 30,800 1,740 Climbing Albuquerque Center
11:17PM 31.3747 -105.2564 101° East 490 564 32,400 1,740 Climbing Albuquerque Center
11:18PM 31.3481 -105.0919 101° East 504 580 34,400 1,800 Climbing Albuquerque Center
11:19PM 31.3181 -104.9292 102° East 508 585 36,200 1,620 Climbing Albuquerque Center
11:20PM 31.2883 -104.7658 102° East 508 585 37,800 1,500 Climbing Albuquerque Center
11:21PM 31.2594 -104.6019 102° East 512 589 39,300 1,320 Climbing Albuquerque Center
11:22PM 31.2294 -104.4383 102° East 513 590 40,600 780 Climbing Albuquerque Center
11:23PM 31.1992 -104.2783 102° East 508 585 41,000 180 Climbing Albuquerque Center
11:24PM 31.1706 -104.1203 102° East 501 577 41,000  Level Albuquerque Center
11:25PM 31.1417 -103.9631 102° East 498 573 41,000  Level Albuquerque Center
11:26PM 31.1106 -103.8047 103° East 500 575 41,000  Level Albuquerque Center
11:27PM 31.0792 -103.6428 103° East 497 572 41,000  Level Albuquerque Center
11:28PM 31.0494 -103.4869 103° East 495 570 41,000  Level Albuquerque Center
11:29PM 31.0122 -103.2981 103° East 500 575 41,000  Level Albuquerque Center
11:30PM 30.9828 -103.1417 102° East 497 572 41,000  Level Albuquerque Center
11:31PM 30.9539 -102.9856 102° East 497 572 41,000  Level Albuquerque Center
11:32PM 30.9131 -102.8294 107° East 503 579 41,000  Level Albuquerque Center
11:33PM 30.8736 -102.6756 107° East 502 578 41,000  Level Albuquerque Center
11:34PM 30.8333 -102.5225 107° East 501 577 41,000  Level Albuquerque Center
11:35PM 30.7919 -102.3683 107° East 503 579 41,000  Level Albuquerque Center
11:36PM 30.7522 -102.2144 107° East 503 579 41,000  Level Albuquerque Center
11:37PM 30.7039 -102.0303 107° East 502 578 41,000  Level Albuquerque Center
11:38PM 30.6636 -101.8797 107° East 497 572 41,000  Level Albuquerque Center
11:40PM 30.5914 -101.6072 107° East 492 566 41,000  Level Houston Center
11:41PM 30.5544 -101.4667 107° East 492 566 41,000  Level Houston Center
11:42PM 30.5117 -101.3144 108° East 496 571 41,000 -60 Level Houston Center
11:43PM 30.4642 -101.1633 110° East 500 575 40,900 -1,200 Descending Houston Center
11:44PM 30.4183 -101.0108 109° East 501 577 38,700 -2,340 Descending Houston Center
11:45PM 30.3714 -100.8636 110° East 490 564 36,200 -2,520 Descending Houston Center
11:46PM 30.3269 -100.7139 109° East 492 566 33,700 -2,340 Descending Houston Center
11:47PM 30.2831 -100.5692 109° East 481 554 31,600 -2,100 Descending Houston Center
11:48PM 30.2400 -100.4303 110° East 460 529 29,500 -2,040 Descending Houston Center
11:49PM 30.1986 -100.2953 110° East 442 509 27,600 -1,920 Descending Houston Center
11:50PM 30.1581 -100.1650 110° East 425 489 25,700 -1,860 Descending Houston Center
11:51PM 30.1200 -100.0403 109° East 410 472 23,900 -1,800 Descending Houston Center
11:52PM 30.0822 -99.9228 110° East 392 451 22,100 -1,740 Descending Houston Center
11:53PM 30.0461 -99.8072 110° East 385 443 20,400 -1,680 Descending Houston Center
11:54PM 30.0100 -99.6936 110° East 379 436 18,800 -1,620 Descending Houston Center
11:55PM 29.9756 -99.5844 110° East 364 419 17,200 -1,680 Descending Houston Center
11:56PM 29.9411 -99.4789 111° Southeast 354 407 15,400 -1,980 Descending Houston Center
11:57PM 29.9047 -99.3669 111° Southeast 347 399 13,500 -1,920 Descending Houston Center
11:58PM 29.8700 -99.2544 110° East 334 384 11,600 -1,620 Descending Houston Center
11:59PM 29.8381 -99.1575 111° Southeast 326 375 10,100 -1,320 Descending Houston Center
12:00AM 29.8078 -99.0617 110° East 299 344 9,000 -1,200 Descending Houston Center
12:01AM 29.7800 -98.9767 111° Southeast 288 331 7,700 -1,320 Descending Houston Center
12:02AM 29.7539 -98.8944 110° East 274 315 6,400 -1,320 Descending Houston Center
12:03AM 29.7278 -98.8161 111° Southeast 263 303 5,100 -1,200 Descending Houston Center
12:04AM 29.7031 -98.7397 110° East 256 295 4,000 -600 Descending Houston Center
12:05AM 29.6800 -98.6683 110° East 242 278 4,000 -180 Level Houston Center
12:06AM 29.6444 -98.6161 128° Southeast 208 239 3,700 -600 Descending Houston Center
12:07AM 29.6136 -98.5758 131° Southeast 173 199 2,800 -780 Descending Houston Center
12:08AM 29.5917 -98.5478 132° Southeast 137 158 2,200 -660 Descending Houston Center
12:09AM 29.5669 -98.5156 131° Southeast 120 138 1,500 -660 Descending Houston Center
12:10AM 29.5450 -98.4864 131° Southeast 120 138 900 -600 Descending Houston Center
12:12AM 29.5333 -98.4667 90° East  Level FlightAware Approximate
12:19AM 29.5340 -98.4691 90° East  Level Estimated
12:20AM 29.5333 -98.4667 90° East  Level FlightAware Approximate